sensor_id;sensor_type;location;lat;lon;timestamp;P1;durP1;ratioP1;P2;durP2;ratioP2
71236;SDS011;58984;51.960;5.582;2022-09-09T00:04:19;2.38;;;1.90;;
71236;SDS011;58984;51.960;5.582;2022-09-09T00:09:56;2.08;;;1.75;;
71236;SDS011;58984;51.960;5.582;2022-09-09T00:12:34;2.50;;;1.88;;
71236;SDS011;58984;51.960;5.582;2022-09-09T00:15:07;3.63;;;2.20;;
71236;SDS011;58984;51.960;5.582;2022-09-09T00:22:48;4.05;;;2.10;;
71236;SDS011;58984;51.960;5.582;2022-09-09T00:25:21;3.45;;;2.45;;
71236;SDS011;58984;51.960;5.582;2022-09-09T00:27:53;3.72;;;2.28;;
71236;SDS011;58984;51.960;5.582;2022-09-09T00:32:55;3.10;;;1.80;;
71236;SDS011;58984;51.960;5.582;2022-09-09T00:35:27;3.92;;;2.20;;
71236;SDS011;58984;51.960;5.582;2022-09-09T00:38:03;3.47;;;2.40;;
71236;SDS011;58984;51.960;5.582;2022-09-09T00:40:52;4.15;;;2.13;;
71236;SDS011;58984;51.960;5.582;2022-09-09T00:45:59;2.05;;;1.88;;
71236;SDS011;58984;51.960;5.582;2022-09-09T00:51:49;3.13;;;1.92;;
71236;SDS011;58984;51.960;5.582;2022-09-09T00:57:23;3.35;;;1.90;;
71236;SDS011;58984;51.960;5.582;2022-09-09T00:59:57;5.70;;;2.05;;
71236;SDS011;58984;51.960;5.582;2022-09-09T01:05:20;2.90;;;1.90;;
71236;SDS011;58984;51.960;5.582;2022-09-09T01:07:49;2.58;;;2.00;;
71236;SDS011;58984;51.960;5.582;2022-09-09T01:10:19;2.17;;;1.77;;
71236;SDS011;58984;51.960;5.582;2022-09-09T01:12:53;2.10;;;1.75;;
71236;SDS011;58984;51.960;5.582;2022-09-09T01:15:21;3.33;;;1.95;;
71236;SDS011;58984;51.960;5.582;2022-09-09T01:18:01;3.53;;;1.77;;
71236;SDS011;58984;51.960;5.582;2022-09-09T01:23:38;3.22;;;1.70;;
71236;SDS011;58984;51.960;5.582;2022-09-09T01:29:00;4.00;;;1.95;;
71236;SDS011;58984;51.960;5.582;2022-09-09T01:31:27;2.55;;;1.90;;
71236;SDS011;58984;51.960;5.582;2022-09-09T01:33:57;2.17;;;1.75;;
71236;SDS011;58984;51.960;5.582;2022-09-09T01:39:00;3.63;;;1.90;;
71236;SDS011;58984;51.960;5.582;2022-09-09T01:41:26;3.83;;;2.20;;
71236;SDS011;58984;51.960;5.582;2022-09-09T01:43:52;2.03;;;1.73;;
71236;SDS011;58984;51.960;5.582;2022-09-09T01:46:20;2.28;;;2.08;;
71236;SDS011;58984;51.960;5.582;2022-09-09T01:48:47;3.78;;;1.63;;
71236;SDS011;58984;51.960;5.582;2022-09-09T01:51:15;3.33;;;2.03;;
71236;SDS011;58984;51.960;5.582;2022-09-09T01:53:40;4.10;;;1.90;;
71236;SDS011;58984;51.960;5.582;2022-09-09T01:56:14;2.75;;;1.70;;
71236;SDS011;58984;51.960;5.582;2022-09-09T02:07:14;2.58;;;1.83;;
71236;SDS011;58984;51.960;5.582;2022-09-09T02:10:05;4.63;;;1.85;;
71236;SDS011;58984;51.960;5.582;2022-09-09T02:12:34;4.18;;;1.75;;
71236;SDS011;58984;51.960;5.582;2022-09-09T02:15:06;2.08;;;1.40;;
71236;SDS011;58984;51.960;5.582;2022-09-09T02:17:38;1.55;;;1.38;;
71236;SDS011;58984;51.960;5.582;2022-09-09T02:20:08;2.58;;;1.70;;
71236;SDS011;58984;51.960;5.582;2022-09-09T02:22:38;4.10;;;1.60;;
71236;SDS011;58984;51.960;5.582;2022-09-09T02:25:08;2.45;;;1.63;;
71236;SDS011;58984;51.960;5.582;2022-09-09T02:27:37;2.90;;;1.92;;
71236;SDS011;58984;51.960;5.582;2022-09-09T02:30:05;3.03;;;1.45;;
71236;SDS011;58984;51.960;5.582;2022-09-09T02:32:32;1.70;;;1.60;;
71236;SDS011;58984;51.960;5.582;2022-09-09T02:35:05;2.72;;;1.50;;
71236;SDS011;58984;51.960;5.582;2022-09-09T02:37:35;2.63;;;1.73;;
71236;SDS011;58984;51.960;5.582;2022-09-09T02:40:03;2.03;;;1.58;;
71236;SDS011;58984;51.960;5.582;2022-09-09T02:42:30;2.85;;;1.67;;
71236;SDS011;58984;51.960;5.582;2022-09-09T02:44:55;2.13;;;1.70;;
71236;SDS011;58984;51.960;5.582;2022-09-09T02:47:26;3.55;;;1.60;;
71236;SDS011;58984;51.960;5.582;2022-09-09T02:55:39;3.03;;;1.73;;
71236;SDS011;58984;51.960;5.582;2022-09-09T03:00:47;2.75;;;1.65;;
71236;SDS011;58984;51.960;5.582;2022-09-09T03:03:15;2.53;;;1.52;;
71236;SDS011;58984;51.960;5.582;2022-09-09T03:05:43;5.05;;;1.90;;
71236;SDS011;58984;51.960;5.582;2022-09-09T03:08:09;3.03;;;1.63;;
71236;SDS011;58984;51.960;5.582;2022-09-09T03:10:35;3.03;;;1.55;;
71236;SDS011;58984;51.960;5.582;2022-09-09T03:13:02;4.28;;;1.67;;
71236;SDS011;58984;51.960;5.582;2022-09-09T03:15:29;4.43;;;1.85;;
71236;SDS011;58984;51.960;5.582;2022-09-09T03:17:56;3.72;;;1.88;;
71236;SDS011;58984;51.960;5.582;2022-09-09T03:20:23;2.65;;;1.80;;
71236;SDS011;58984;51.960;5.582;2022-09-09T03:22:50;2.50;;;1.55;;
71236;SDS011;58984;51.960;5.582;2022-09-09T03:25:17;3.47;;;2.15;;
71236;SDS011;58984;51.960;5.582;2022-09-09T03:27:43;3.97;;;2.00;;
71236;SDS011;58984;51.960;5.582;2022-09-09T03:30:08;1.92;;;1.58;;
71236;SDS011;58984;51.960;5.582;2022-09-09T03:32:34;9.13;;;2.10;;
71236;SDS011;58984;51.960;5.582;2022-09-09T03:35:00;3.78;;;2.10;;
71236;SDS011;58984;51.960;5.582;2022-09-09T03:37:26;4.75;;;2.00;;
71236;SDS011;58984;51.960;5.582;2022-09-09T03:39:51;2.38;;;1.88;;
71236;SDS011;58984;51.960;5.582;2022-09-09T03:42:19;2.42;;;1.75;;
71236;SDS011;58984;51.960;5.582;2022-09-09T03:44:45;3.65;;;1.80;;
71236;SDS011;58984;51.960;5.582;2022-09-09T03:47:14;3.17;;;2.08;;
71236;SDS011;58984;51.960;5.582;2022-09-09T03:49:43;2.78;;;1.70;;
71236;SDS011;58984;51.960;5.582;2022-09-09T03:52:09;3.88;;;1.70;;
71236;SDS011;58984;51.960;5.582;2022-09-09T03:54:35;2.95;;;2.17;;
71236;SDS011;58984;51.960;5.582;2022-09-09T03:57:00;2.95;;;1.85;;
71236;SDS011;58984;51.960;5.582;2022-09-09T03:59:26;7.13;;;2.45;;
71236;SDS011;58984;51.960;5.582;2022-09-09T04:01:52;4.35;;;2.05;;
71236;SDS011;58984;51.960;5.582;2022-09-09T04:04:18;3.65;;;1.90;;
71236;SDS011;58984;51.960;5.582;2022-09-09T04:06:44;2.72;;;1.75;;
71236;SDS011;58984;51.960;5.582;2022-09-09T04:09:10;5.00;;;2.08;;
71236;SDS011;58984;51.960;5.582;2022-09-09T04:11:36;3.22;;;1.65;;
71236;SDS011;58984;51.960;5.582;2022-09-09T04:14:02;4.65;;;2.10;;
71236;SDS011;58984;51.960;5.582;2022-09-09T04:16:30;3.97;;;1.95;;
71236;SDS011;58984;51.960;5.582;2022-09-09T04:18:57;3.72;;;1.92;;
71236;SDS011;58984;51.960;5.582;2022-09-09T04:21:23;4.38;;;1.92;;
71236;SDS011;58984;51.960;5.582;2022-09-09T04:23:48;4.22;;;2.03;;
71236;SDS011;58984;51.960;5.582;2022-09-09T04:26:14;4.55;;;2.03;;
71236;SDS011;58984;51.960;5.582;2022-09-09T04:28:39;3.38;;;1.83;;
71236;SDS011;58984;51.960;5.582;2022-09-09T04:31:08;5.40;;;2.10;;
71236;SDS011;58984;51.960;5.582;2022-09-09T04:33:38;5.40;;;2.10;;
71236;SDS011;58984;51.960;5.582;2022-09-09T04:36:04;2.38;;;1.88;;
71236;SDS011;58984;51.960;5.582;2022-09-09T04:38:30;3.60;;;1.90;;
71236;SDS011;58984;51.960;5.582;2022-09-09T04:40:55;3.95;;;2.10;;
71236;SDS011;58984;51.960;5.582;2022-09-09T04:43:22;3.60;;;1.80;;
71236;SDS011;58984;51.960;5.582;2022-09-09T04:45:48;6.43;;;2.00;;
71236;SDS011;58984;51.960;5.582;2022-09-09T04:48:14;5.20;;;2.10;;
71236;SDS011;58984;51.960;5.582;2022-09-09T04:50:40;4.10;;;1.88;;
71236;SDS011;58984;51.960;5.582;2022-09-09T04:53:06;4.40;;;1.90;;
71236;SDS011;58984;51.960;5.582;2022-09-09T04:55:31;5.60;;;2.72;;
71236;SDS011;58984;51.960;5.582;2022-09-09T04:58:03;2.63;;;2.20;;
71236;SDS011;58984;51.960;5.582;2022-09-09T05:00:33;3.42;;;2.08;;
71236;SDS011;58984;51.960;5.582;2022-09-09T05:03:04;2.67;;;1.58;;
71236;SDS011;58984;51.960;5.582;2022-09-09T05:05:30;5.70;;;2.13;;
71236;SDS011;58984;51.960;5.582;2022-09-09T05:08:02;5.78;;;1.90;;
71236;SDS011;58984;51.960;5.582;2022-09-09T05:10:32;5.28;;;2.00;;
71236;SDS011;58984;51.960;5.582;2022-09-09T05:12:58;2.92;;;1.75;;
71236;SDS011;58984;51.960;5.582;2022-09-09T05:15:24;6.72;;;2.08;;
71236;SDS011;58984;51.960;5.582;2022-09-09T05:17:50;4.75;;;2.03;;
71236;SDS011;58984;51.960;5.582;2022-09-09T05:20:17;5.90;;;2.13;;
71236;SDS011;58984;51.960;5.582;2022-09-09T05:22:43;4.47;;;2.20;;
71236;SDS011;58984;51.960;5.582;2022-09-09T05:25:08;2.78;;;1.60;;
71236;SDS011;58984;51.960;5.582;2022-09-09T05:27:34;3.88;;;1.80;;
71236;SDS011;58984;51.960;5.582;2022-09-09T05:30:00;4.60;;;2.17;;
71236;SDS011;58984;51.960;5.582;2022-09-09T05:32:25;4.38;;;1.90;;
71236;SDS011;58984;51.960;5.582;2022-09-09T05:34:51;3.60;;;2.13;;
71236;SDS011;58984;51.960;5.582;2022-09-09T05:37:17;8.43;;;2.10;;
71236;SDS011;58984;51.960;5.582;2022-09-09T05:39:43;4.45;;;2.15;;
71236;SDS011;58984;51.960;5.582;2022-09-09T05:42:08;4.78;;;2.03;;
71236;SDS011;58984;51.960;5.582;2022-09-09T05:44:34;5.78;;;2.20;;
71236;SDS011;58984;51.960;5.582;2022-09-09T05:47:00;5.05;;;2.10;;
71236;SDS011;58984;51.960;5.582;2022-09-09T05:49:25;4.03;;;2.25;;
71236;SDS011;58984;51.960;5.582;2022-09-09T05:51:51;5.38;;;2.50;;
71236;SDS011;58984;51.960;5.582;2022-09-09T05:54:17;4.07;;;2.38;;
71236;SDS011;58984;51.960;5.582;2022-09-09T05:56:42;4.15;;;2.42;;
71236;SDS011;58984;51.960;5.582;2022-09-09T05:59:08;4.65;;;2.30;;
71236;SDS011;58984;51.960;5.582;2022-09-09T06:01:35;4.07;;;2.35;;
71236;SDS011;58984;51.960;5.582;2022-09-09T06:04:05;4.60;;;2.20;;
71236;SDS011;58984;51.960;5.582;2022-09-09T06:06:31;6.05;;;2.38;;
71236;SDS011;58984;51.960;5.582;2022-09-09T06:09:02;3.35;;;1.98;;
71236;SDS011;58984;51.960;5.582;2022-09-09T06:11:31;4.53;;;2.20;;
71236;SDS011;58984;51.960;5.582;2022-09-09T06:13:58;8.75;;;2.75;;
71236;SDS011;58984;51.960;5.582;2022-09-09T06:16:25;7.25;;;2.00;;
71236;SDS011;58984;51.960;5.582;2022-09-09T06:18:55;2.95;;;2.00;;
71236;SDS011;58984;51.960;5.582;2022-09-09T06:23:51;5.05;;;2.40;;
71236;SDS011;58984;51.960;5.582;2022-09-09T06:26:17;6.03;;;2.25;;
71236;SDS011;58984;51.960;5.582;2022-09-09T06:28:45;5.90;;;2.40;;
71236;SDS011;58984;51.960;5.582;2022-09-09T06:31:13;4.95;;;2.20;;
71236;SDS011;58984;51.960;5.582;2022-09-09T06:33:41;6.07;;;2.58;;
71236;SDS011;58984;51.960;5.582;2022-09-09T06:36:16;9.57;;;3.05;;
71236;SDS011;58984;51.960;5.582;2022-09-09T06:38:43;4.40;;;2.35;;
71236;SDS011;58984;51.960;5.582;2022-09-09T06:41:09;3.42;;;2.33;;
71236;SDS011;58984;51.960;5.582;2022-09-09T06:43:35;6.47;;;2.60;;
71236;SDS011;58984;51.960;5.582;2022-09-09T06:46:02;3.25;;;2.35;;
71236;SDS011;58984;51.960;5.582;2022-09-09T06:48:39;4.53;;;2.38;;
71236;SDS011;58984;51.960;5.582;2022-09-09T06:51:07;4.05;;;2.25;;
71236;SDS011;58984;51.960;5.582;2022-09-09T06:53:36;6.93;;;2.72;;
71236;SDS011;58984;51.960;5.582;2022-09-09T06:58:48;6.75;;;2.47;;
71236;SDS011;58984;51.960;5.582;2022-09-09T07:01:21;6.50;;;2.50;;
71236;SDS011;58984;51.960;5.582;2022-09-09T07:03:49;4.57;;;2.72;;
71236;SDS011;58984;51.960;5.582;2022-09-09T07:06:17;7.68;;;2.92;;
71236;SDS011;58984;51.960;5.582;2022-09-09T07:08:52;8.27;;;2.70;;
71236;SDS011;58984;51.960;5.582;2022-09-09T07:11:22;6.53;;;2.70;;
71236;SDS011;58984;51.960;5.582;2022-09-09T07:13:49;6.20;;;2.60;;
71236;SDS011;58984;51.960;5.582;2022-09-09T07:16:15;6.45;;;2.58;;
71236;SDS011;58984;51.960;5.582;2022-09-09T07:18:43;4.72;;;2.50;;
71236;SDS011;58984;51.960;5.582;2022-09-09T07:21:10;7.35;;;3.20;;
71236;SDS011;58984;51.960;5.582;2022-09-09T07:23:40;5.00;;;2.75;;
71236;SDS011;58984;51.960;5.582;2022-09-09T07:26:13;6.80;;;2.92;;
71236;SDS011;58984;51.960;5.582;2022-09-09T07:28:41;5.78;;;2.85;;
71236;SDS011;58984;51.960;5.582;2022-09-09T07:31:13;5.90;;;2.70;;
71236;SDS011;58984;51.960;5.582;2022-09-09T07:33:43;4.43;;;2.75;;
71236;SDS011;58984;51.960;5.582;2022-09-09T07:36:12;6.88;;;2.72;;
71236;SDS011;58984;51.960;5.582;2022-09-09T07:38:40;5.07;;;2.35;;
71236;SDS011;58984;51.960;5.582;2022-09-09T07:41:18;7.55;;;3.30;;
71236;SDS011;58984;51.960;5.582;2022-09-09T07:43:44;4.72;;;2.72;;
71236;SDS011;58984;51.960;5.582;2022-09-09T07:46:12;5.72;;;2.83;;
71236;SDS011;58984;51.960;5.582;2022-09-09T07:48:43;5.80;;;3.17;;
71236;SDS011;58984;51.960;5.582;2022-09-09T07:51:16;6.80;;;2.90;;
71236;SDS011;58984;51.960;5.582;2022-09-09T07:53:43;5.05;;;2.67;;
71236;SDS011;58984;51.960;5.582;2022-09-09T07:56:10;6.88;;;2.90;;
71236;SDS011;58984;51.960;5.582;2022-09-09T07:58:37;4.85;;;2.72;;
71236;SDS011;58984;51.960;5.582;2022-09-09T08:01:07;9.82;;;3.30;;
71236;SDS011;58984;51.960;5.582;2022-09-09T08:03:37;7.07;;;2.90;;
71236;SDS011;58984;51.960;5.582;2022-09-09T08:06:04;5.32;;;3.08;;
71236;SDS011;58984;51.960;5.582;2022-09-09T08:08:32;5.53;;;2.85;;
71236;SDS011;58984;51.960;5.582;2022-09-09T08:11:06;8.18;;;2.50;;
71236;SDS011;58984;51.960;5.582;2022-09-09T08:13:42;4.40;;;3.20;;
71236;SDS011;58984;51.960;5.582;2022-09-09T08:16:12;6.68;;;2.78;;
71236;SDS011;58984;51.960;5.582;2022-09-09T08:18:40;8.48;;;2.60;;
71236;SDS011;58984;51.960;5.582;2022-09-09T08:21:07;9.02;;;2.78;;
71236;SDS011;58984;51.960;5.582;2022-09-09T08:23:36;5.45;;;2.58;;
71236;SDS011;58984;51.960;5.582;2022-09-09T08:26:36;5.75;;;2.63;;
71236;SDS011;58984;51.960;5.582;2022-09-09T08:28:57;5.32;;;2.70;;
71236;SDS011;58984;51.960;5.582;2022-09-09T08:31:31;7.50;;;2.67;;
71236;SDS011;58984;51.960;5.582;2022-09-09T08:34:02;11.90;;;2.80;;
71236;SDS011;58984;51.960;5.582;2022-09-09T08:36:30;4.45;;;2.55;;
71236;SDS011;58984;51.960;5.582;2022-09-09T08:38:58;8.35;;;3.22;;
71236;SDS011;58984;51.960;5.582;2022-09-09T08:41:39;9.38;;;3.08;;
71236;SDS011;58984;51.960;5.582;2022-09-09T08:55:19;6.47;;;2.58;;
71236;SDS011;58984;51.960;5.582;2022-09-09T08:57:49;4.88;;;2.70;;
71236;SDS011;58984;51.960;5.582;2022-09-09T09:00:19;5.35;;;2.80;;
71236;SDS011;58984;51.960;5.582;2022-09-09T09:02:51;6.68;;;3.10;;
71236;SDS011;58984;51.960;5.582;2022-09-09T09:05:54;7.28;;;2.88;;
71236;SDS011;58984;51.960;5.582;2022-09-09T09:11:05;6.80;;;2.80;;
71236;SDS011;58984;51.960;5.582;2022-09-09T09:16:10;5.72;;;3.10;;
71236;SDS011;58984;51.960;5.582;2022-09-09T09:18:38;5.63;;;2.65;;
71236;SDS011;58984;51.960;5.582;2022-09-09T09:21:10;12.07;;;3.25;;
71236;SDS011;58984;51.960;5.582;2022-09-09T09:26:23;7.68;;;2.70;;
71236;SDS011;58984;51.960;5.582;2022-09-09T09:28:54;7.15;;;2.60;;
71236;SDS011;58984;51.960;5.582;2022-09-09T09:31:22;4.07;;;2.90;;
71236;SDS011;58984;51.960;5.582;2022-09-09T09:33:52;4.80;;;2.70;;
71236;SDS011;58984;51.960;5.582;2022-09-09T09:36:19;5.35;;;2.72;;
71236;SDS011;58984;51.960;5.582;2022-09-09T09:41:28;4.25;;;2.42;;
71236;SDS011;58984;51.960;5.582;2022-09-09T09:43:55;2.65;;;2.33;;
71236;SDS011;58984;51.960;5.582;2022-09-09T09:46:25;5.75;;;2.78;;
71236;SDS011;58984;51.960;5.582;2022-09-09T09:49:01;7.00;;;2.97;;
71236;SDS011;58984;51.960;5.582;2022-09-09T09:51:30;4.45;;;2.53;;
71236;SDS011;58984;51.960;5.582;2022-09-09T09:56:38;8.27;;;3.22;;
71236;SDS011;58984;51.960;5.582;2022-09-09T09:59:05;9.32;;;2.85;;
71236;SDS011;58984;51.960;5.582;2022-09-09T10:01:43;4.32;;;2.75;;
71236;SDS011;58984;51.960;5.582;2022-09-09T10:04:16;5.75;;;2.78;;
71236;SDS011;58984;51.960;5.582;2022-09-09T10:06:45;5.25;;;2.60;;
71236;SDS011;58984;51.960;5.582;2022-09-09T10:09:24;6.50;;;2.70;;
71236;SDS011;58984;51.960;5.582;2022-09-09T10:11:57;9.27;;;2.85;;
71236;SDS011;58984;51.960;5.582;2022-09-09T10:14:30;5.05;;;2.78;;
71236;SDS011;58984;51.960;5.582;2022-09-09T10:18:36;8.45;;;3.03;;
71236;SDS011;58984;51.960;5.582;2022-09-09T10:21:29;5.40;;;2.55;;
71236;SDS011;58984;51.960;5.582;2022-09-09T10:32:40;6.68;;;2.90;;
71236;SDS011;58984;51.960;5.582;2022-09-09T10:37:44;6.22;;;3.17;;
71236;SDS011;58984;51.960;5.582;2022-09-09T10:40:32;5.82;;;3.35;;
71236;SDS011;58984;51.960;5.582;2022-09-09T10:43:09;5.32;;;2.72;;
71236;SDS011;58984;51.960;5.582;2022-09-09T10:48:31;4.95;;;2.72;;
71236;SDS011;58984;51.960;5.582;2022-09-09T10:51:22;7.60;;;2.65;;
71236;SDS011;58984;51.960;5.582;2022-09-09T10:56:30;4.82;;;2.97;;
71236;SDS011;58984;51.960;5.582;2022-09-09T11:01:36;7.82;;;3.33;;
71236;SDS011;58984;51.960;5.582;2022-09-09T11:04:11;5.38;;;3.05;;
71236;SDS011;58984;51.960;5.582;2022-09-09T11:06:51;3.90;;;2.70;;
71236;SDS011;58984;51.960;5.582;2022-09-09T11:09:21;7.38;;;2.65;;
71236;SDS011;58984;51.960;5.582;2022-09-09T11:11:52;6.07;;;3.22;;
71236;SDS011;58984;51.960;5.582;2022-09-09T11:16:52;9.80;;;2.83;;
71236;SDS011;58984;51.960;5.582;2022-09-09T11:19:29;4.45;;;2.95;;
71236;SDS011;58984;51.960;5.582;2022-09-09T11:22:00;5.82;;;2.80;;
71236;SDS011;58984;51.960;5.582;2022-09-09T11:24:38;5.90;;;3.05;;
71236;SDS011;58984;51.960;5.582;2022-09-09T11:27:09;5.65;;;2.60;;
71236;SDS011;58984;51.960;5.582;2022-09-09T11:32:31;5.20;;;2.80;;
71236;SDS011;58984;51.960;5.582;2022-09-09T11:40:56;4.70;;;2.90;;
71236;SDS011;58984;51.960;5.582;2022-09-09T11:43:33;5.75;;;3.17;;
71236;SDS011;58984;51.960;5.582;2022-09-09T11:46:03;6.05;;;3.33;;
71236;SDS011;58984;51.960;5.582;2022-09-09T11:48:36;5.15;;;3.03;;
71236;SDS011;58984;51.960;5.582;2022-09-09T11:51:05;6.75;;;3.10;;
71236;SDS011;58984;51.960;5.582;2022-09-09T11:53:34;4.75;;;2.90;;
71236;SDS011;58984;51.960;5.582;2022-09-09T11:56:05;6.35;;;2.90;;
71236;SDS011;58984;51.960;5.582;2022-09-09T11:58:38;4.07;;;2.30;;
71236;SDS011;58984;51.960;5.582;2022-09-09T12:01:25;6.53;;;2.70;;
71236;SDS011;58984;51.960;5.582;2022-09-09T12:06:44;7.55;;;2.55;;
71236;SDS011;58984;51.960;5.582;2022-09-09T12:14:43;6.28;;;3.10;;
71236;SDS011;58984;51.960;5.582;2022-09-09T12:17:46;5.35;;;2.70;;
71236;SDS011;58984;51.960;5.582;2022-09-09T12:23:02;6.50;;;2.80;;
71236;SDS011;58984;51.960;5.582;2022-09-09T12:31:41;6.00;;;2.65;;
71236;SDS011;58984;51.960;5.582;2022-09-09T12:34:23;6.88;;;2.50;;
71236;SDS011;58984;51.960;5.582;2022-09-09T12:37:05;7.90;;;3.00;;
71236;SDS011;58984;51.960;5.582;2022-09-09T12:42:22;7.03;;;2.90;;
71236;SDS011;58984;51.960;5.582;2022-09-09T12:44:55;2.97;;;2.53;;
71236;SDS011;58984;51.960;5.582;2022-09-09T12:47:29;4.70;;;2.50;;
71236;SDS011;58984;51.960;5.582;2022-09-09T12:50:26;5.85;;;2.67;;
71236;SDS011;58984;51.960;5.582;2022-09-09T12:52:55;4.47;;;2.55;;
71236;SDS011;58984;51.960;5.582;2022-09-09T12:55:30;4.50;;;2.75;;
71236;SDS011;58984;51.960;5.582;2022-09-09T12:57:58;5.25;;;2.30;;
71236;SDS011;58984;51.960;5.582;2022-09-09T13:00:25;3.70;;;2.88;;
71236;SDS011;58984;51.960;5.582;2022-09-09T13:03:02;3.22;;;2.50;;
71236;SDS011;58984;51.960;5.582;2022-09-09T13:05:40;6.65;;;2.53;;
71236;SDS011;58984;51.960;5.582;2022-09-09T13:08:08;2.92;;;2.20;;
71236;SDS011;58984;51.960;5.582;2022-09-09T13:10:37;4.80;;;2.20;;
71236;SDS011;58984;51.960;5.582;2022-09-09T13:13:22;3.17;;;2.20;;
71236;SDS011;58984;51.960;5.582;2022-09-09T13:16:02;4.75;;;2.15;;
71236;SDS011;58984;51.960;5.582;2022-09-09T13:18:31;4.43;;;2.40;;
71236;SDS011;58984;51.960;5.582;2022-09-09T13:20:59;7.43;;;2.55;;
71236;SDS011;58984;51.960;5.582;2022-09-09T13:23:36;4.07;;;2.65;;
71236;SDS011;58984;51.960;5.582;2022-09-09T13:26:07;6.97;;;2.67;;
71236;SDS011;58984;51.960;5.582;2022-09-09T13:28:49;8.27;;;2.80;;
71236;SDS011;58984;51.960;5.582;2022-09-09T13:31:48;4.63;;;2.80;;
71236;SDS011;58984;51.960;5.582;2022-09-09T13:36:55;6.18;;;3.10;;
71236;SDS011;58984;51.960;5.582;2022-09-09T13:39:30;7.13;;;3.28;;
71236;SDS011;58984;51.960;5.582;2022-09-09T13:41:58;7.35;;;3.25;;
71236;SDS011;58984;51.960;5.582;2022-09-09T13:44:25;5.03;;;3.35;;
71236;SDS011;58984;51.960;5.582;2022-09-09T13:47:03;3.90;;;2.55;;
71236;SDS011;58984;51.960;5.582;2022-09-09T13:49:46;5.18;;;2.67;;
71236;SDS011;58984;51.960;5.582;2022-09-09T13:52:12;7.18;;;2.97;;
71236;SDS011;58984;51.960;5.582;2022-09-09T13:54:40;4.95;;;2.90;;
71236;SDS011;58984;51.960;5.582;2022-09-09T13:57:19;7.78;;;2.65;;
71236;SDS011;58984;51.960;5.582;2022-09-09T13:59:50;3.70;;;2.50;;
71236;SDS011;58984;51.960;5.582;2022-09-09T14:02:17;3.42;;;2.40;;
71236;SDS011;58984;51.960;5.582;2022-09-09T14:04:43;3.03;;;2.30;;
71236;SDS011;58984;51.960;5.582;2022-09-09T14:07:13;3.13;;;2.50;;
71236;SDS011;58984;51.960;5.582;2022-09-09T14:09:40;4.25;;;2.75;;
71236;SDS011;58984;51.960;5.582;2022-09-09T14:12:12;4.22;;;2.58;;
71236;SDS011;58984;51.960;5.582;2022-09-09T14:14:40;3.22;;;2.53;;
71236;SDS011;58984;51.960;5.582;2022-09-09T14:17:06;5.10;;;2.55;;
71236;SDS011;58984;51.960;5.582;2022-09-09T14:19:32;4.45;;;2.28;;
71236;SDS011;58984;51.960;5.582;2022-09-09T14:21:58;4.30;;;3.10;;
71236;SDS011;58984;51.960;5.582;2022-09-09T14:24:24;5.60;;;2.45;;
71236;SDS011;58984;51.960;5.582;2022-09-09T14:26:50;5.60;;;2.80;;
71236;SDS011;58984;51.960;5.582;2022-09-09T14:29:15;4.80;;;2.13;;
71236;SDS011;58984;51.960;5.582;2022-09-09T14:31:41;3.35;;;2.33;;
71236;SDS011;58984;51.960;5.582;2022-09-09T14:34:07;3.00;;;2.47;;
71236;SDS011;58984;51.960;5.582;2022-09-09T14:36:32;4.90;;;2.15;;
71236;SDS011;58984;51.960;5.582;2022-09-09T14:38:58;3.55;;;2.10;;
71236;SDS011;58984;51.960;5.582;2022-09-09T14:41:24;3.78;;;2.08;;
71236;SDS011;58984;51.960;5.582;2022-09-09T14:43:50;3.78;;;2.15;;
71236;SDS011;58984;51.960;5.582;2022-09-09T14:46:18;2.40;;;2.20;;
71236;SDS011;58984;51.960;5.582;2022-09-09T14:48:44;4.22;;;2.22;;
71236;SDS011;58984;51.960;5.582;2022-09-09T14:53:44;5.07;;;2.30;;
71236;SDS011;58984;51.960;5.582;2022-09-09T14:56:11;4.35;;;2.40;;
71236;SDS011;58984;51.960;5.582;2022-09-09T14:58:41;3.00;;;2.40;;
71236;SDS011;58984;51.960;5.582;2022-09-09T15:01:08;5.22;;;2.53;;
71236;SDS011;58984;51.960;5.582;2022-09-09T15:03:37;5.72;;;2.80;;
71236;SDS011;58984;51.960;5.582;2022-09-09T15:06:07;4.95;;;2.30;;
71236;SDS011;58984;51.960;5.582;2022-09-09T15:08:34;3.17;;;2.47;;
71236;SDS011;58984;51.960;5.582;2022-09-09T15:11:01;4.57;;;2.20;;
71236;SDS011;58984;51.960;5.582;2022-09-09T15:13:28;4.47;;;2.15;;
71236;SDS011;58984;51.960;5.582;2022-09-09T15:15:54;4.13;;;2.40;;
71236;SDS011;58984;51.960;5.582;2022-09-09T15:18:20;4.10;;;2.30;;
71236;SDS011;58984;51.960;5.582;2022-09-09T15:20:46;4.05;;;2.42;;
71236;SDS011;58984;51.960;5.582;2022-09-09T15:23:12;5.15;;;2.47;;
71236;SDS011;58984;51.960;5.582;2022-09-09T15:25:38;6.32;;;2.45;;
71236;SDS011;58984;51.960;5.582;2022-09-09T15:28:15;4.40;;;2.25;;
71236;SDS011;58984;51.960;5.582;2022-09-09T15:30:41;3.38;;;2.20;;
71236;SDS011;58984;51.960;5.582;2022-09-09T15:33:09;4.72;;;2.40;;
71236;SDS011;58984;51.960;5.582;2022-09-09T15:35:35;4.43;;;2.20;;
71236;SDS011;58984;51.960;5.582;2022-09-09T15:38:01;5.53;;;2.33;;
71236;SDS011;58984;51.960;5.582;2022-09-09T15:40:29;3.25;;;2.55;;
71236;SDS011;58984;51.960;5.582;2022-09-09T15:42:57;4.80;;;2.08;;
71236;SDS011;58984;51.960;5.582;2022-09-09T15:45:23;4.15;;;2.13;;
71236;SDS011;58984;51.960;5.582;2022-09-09T15:47:48;4.32;;;2.17;;
71236;SDS011;58984;51.960;5.582;2022-09-09T15:50:14;4.03;;;2.20;;
71236;SDS011;58984;51.960;5.582;2022-09-09T15:52:40;3.47;;;2.25;;
71236;SDS011;58984;51.960;5.582;2022-09-09T15:55:06;3.72;;;2.35;;
71236;SDS011;58984;51.960;5.582;2022-09-09T15:57:33;3.55;;;2.05;;
71236;SDS011;58984;51.960;5.582;2022-09-09T15:59:59;2.03;;;1.83;;
71236;SDS011;58984;51.960;5.582;2022-09-09T16:02:25;3.78;;;2.05;;
71236;SDS011;58984;51.960;5.582;2022-09-09T16:04:51;2.78;;;1.70;;
71236;SDS011;58984;51.960;5.582;2022-09-09T16:07:16;7.20;;;2.80;;
71236;SDS011;58984;51.960;5.582;2022-09-09T16:09:42;5.15;;;2.47;;
71236;SDS011;58984;51.960;5.582;2022-09-09T16:12:08;2.95;;;2.15;;
71236;SDS011;58984;51.960;5.582;2022-09-09T16:14:36;3.85;;;1.95;;
71236;SDS011;58984;51.960;5.582;2022-09-09T16:17:03;2.80;;;1.70;;
71236;SDS011;58984;51.960;5.582;2022-09-09T16:19:30;3.90;;;1.92;;
71236;SDS011;58984;51.960;5.582;2022-09-09T16:21:56;3.75;;;1.98;;
71236;SDS011;58984;51.960;5.582;2022-09-09T16:24:22;2.53;;;1.92;;
71236;SDS011;58984;51.960;5.582;2022-09-09T16:26:50;3.67;;;2.10;;
71236;SDS011;58984;51.960;5.582;2022-09-09T16:29:18;2.65;;;1.90;;
71236;SDS011;58984;51.960;5.582;2022-09-09T16:31:45;4.10;;;1.80;;
71236;SDS011;58984;51.960;5.582;2022-09-09T16:34:11;2.42;;;1.80;;
71236;SDS011;58984;51.960;5.582;2022-09-09T16:36:38;2.47;;;1.80;;
71236;SDS011;58984;51.960;5.582;2022-09-09T16:39:06;2.72;;;1.95;;
71236;SDS011;58984;51.960;5.582;2022-09-09T16:41:37;3.03;;;1.90;;
71236;SDS011;58984;51.960;5.582;2022-09-09T16:44:05;5.03;;;1.98;;
71236;SDS011;58984;51.960;5.582;2022-09-09T16:46:33;4.00;;;2.30;;
71236;SDS011;58984;51.960;5.582;2022-09-09T16:49:01;2.38;;;1.90;;
71236;SDS011;58984;51.960;5.582;2022-09-09T16:51:32;1.67;;;1.58;;
71236;SDS011;58984;51.960;5.582;2022-09-09T16:54:01;3.40;;;1.77;;
71236;SDS011;58984;51.960;5.582;2022-09-09T16:56:29;3.08;;;1.85;;
71236;SDS011;58984;51.960;5.582;2022-09-09T16:58:59;3.80;;;1.60;;
71236;SDS011;58984;51.960;5.582;2022-09-09T17:01:27;3.08;;;2.17;;
71236;SDS011;58984;51.960;5.582;2022-09-09T17:03:58;3.38;;;1.90;;
71236;SDS011;58984;51.960;5.582;2022-09-09T17:06:26;3.17;;;1.85;;
71236;SDS011;58984;51.960;5.582;2022-09-09T17:08:55;3.70;;;2.03;;
71236;SDS011;58984;51.960;5.582;2022-09-09T17:11:22;3.55;;;2.08;;
71236;SDS011;58984;51.960;5.582;2022-09-09T17:13:48;4.60;;;1.95;;
71236;SDS011;58984;51.960;5.582;2022-09-09T17:16:16;3.60;;;2.10;;
71236;SDS011;58984;51.960;5.582;2022-09-09T17:18:46;2.67;;;2.15;;
71236;SDS011;58984;51.960;5.582;2022-09-09T17:21:12;3.60;;;2.17;;